createdAt,value
2022-10-30T00:01:42.034Z,9.83
2022-10-30T00:04:08.576Z,9.84
2022-10-30T00:06:35.117Z,9.88
2022-10-30T00:09:03.007Z,9.88
2022-10-30T00:11:29.533Z,9.86
2022-10-30T00:13:56.250Z,9.85
2022-10-30T00:16:22.777Z,9.83
2022-10-30T00:18:49.287Z,9.83
2022-10-30T00:21:16.057Z,9.83
2022-10-30T00:23:45.892Z,9.84
2022-10-30T00:26:14.522Z,9.83
2022-10-30T00:28:41.048Z,9.82
2022-10-30T00:31:07.684Z,9.81
2022-10-30T00:33:34.325Z,9.78
2022-10-30T00:36:01.079Z,9.80
2022-10-30T00:38:27.659Z,9.79
2022-10-30T00:40:54.167Z,9.77
2022-10-30T00:43:30.841Z,9.76
2022-10-30T00:45:59.881Z,9.76
2022-10-30T00:48:26.686Z,9.73
2022-10-30T00:50:54.270Z,9.75
2022-10-30T00:53:21.942Z,9.73
2022-10-30T00:55:52.303Z,9.73
2022-10-30T00:58:24.094Z,9.73
2022-10-30T01:00:54.854Z,9.72
2022-10-30T01:03:23.541Z,9.72
2022-10-30T01:05:54.865Z,9.73
2022-10-30T01:08:21.439Z,9.74
2022-10-30T01:10:48.284Z,9.73
2022-10-30T01:13:16.087Z,9.73
2022-10-30T01:15:53.374Z,9.73
2022-10-30T01:18:34.954Z,9.74
2022-10-30T01:21:14.854Z,9.74
2022-10-30T01:23:53.708Z,9.73
2022-10-30T01:26:32.277Z,9.74
2022-10-30T01:29:12.611Z,9.75
2022-10-30T01:31:50.674Z,9.74
2022-10-30T01:34:21.215Z,9.67
2022-10-30T01:36:54.994Z,9.63
2022-10-30T01:39:24.231Z,9.59
2022-10-30T01:41:50.962Z,9.58
2022-10-30T01:44:20.791Z,9.56
2022-10-30T01:47:02.237Z,9.52
2022-10-30T01:50:13.055Z,9.49
2022-10-30T01:52:47.460Z,9.53
2022-10-30T01:55:32.505Z,9.58
2022-10-30T01:58:05.967Z,9.61
2022-10-30T02:00:32.586Z,9.59
2022-10-30T02:02:59.736Z,9.58
2022-10-30T02:05:36.379Z,9.58
2022-10-30T02:08:03.018Z,9.62
2022-10-30T02:10:31.415Z,9.62
2022-10-30T02:12:57.930Z,9.62
2022-10-30T02:15:24.573Z,9.60
2022-10-30T02:17:51.170Z,9.59
2022-10-30T02:20:19.797Z,9.56
2022-10-30T02:22:46.555Z,9.54
2022-10-30T02:25:13.966Z,9.49
2022-10-30T02:27:40.670Z,9.45
2022-10-30T02:30:08.911Z,9.42
2022-10-30T02:32:35.635Z,9.40
2022-10-30T02:35:02.785Z,9.41
2022-10-30T02:37:30.710Z,9.40
2022-10-30T02:39:57.205Z,9.44
2022-10-30T02:42:23.737Z,9.50
2022-10-30T02:44:50.244Z,9.49
2022-10-30T02:47:16.880Z,9.51
2022-10-30T02:49:44.541Z,9.49
2022-10-30T02:52:11.270Z,9.47
2022-10-30T02:54:39.145Z,9.45
2022-10-30T02:57:05.768Z,9.44
2022-10-30T02:59:32.287Z,9.42
2022-10-30T03:01:58.855Z,9.40
2022-10-30T03:04:25.539Z,9.41
2022-10-30T03:06:52.149Z,9.36
2022-10-30T03:09:18.677Z,9.38
2022-10-30T03:11:46.953Z,9.33
2022-10-30T03:14:13.768Z,9.25
2022-10-30T03:16:40.405Z,9.19
2022-10-30T03:19:06.902Z,9.19
2022-10-30T03:21:33.589Z,9.18
2022-10-30T03:24:00.199Z,9.12
2022-10-30T03:26:26.785Z,9.09
2022-10-30T03:28:54.625Z,9.07
2022-10-30T03:31:21.579Z,9.03
2022-10-30T03:33:48.082Z,8.98
2022-10-30T03:36:15.026Z,8.95
2022-10-30T03:38:42.270Z,8.88
2022-10-30T03:41:09.023Z,8.82
2022-10-30T03:43:35.674Z,8.76
2022-10-30T03:46:03.706Z,8.84
2022-10-30T03:48:30.370Z,8.83
2022-10-30T03:50:58.412Z,8.75
2022-10-30T03:53:25.826Z,8.70
2022-10-30T03:55:53.279Z,8.63
2022-10-30T03:58:19.851Z,8.61
2022-10-30T04:00:46.555Z,8.55
2022-10-30T04:03:14.543Z,8.51
2022-10-30T04:05:41.202Z,8.47
2022-10-30T04:08:12.208Z,8.43
2022-10-30T04:10:42.652Z,8.45
2022-10-30T04:13:10.477Z,8.48
2022-10-30T04:15:37.070Z,8.45
2022-10-30T04:18:03.778Z,8.42
2022-10-30T04:20:31.819Z,8.41
2022-10-30T04:22:59.834Z,8.37
2022-10-30T04:25:27.119Z,8.32
2022-10-30T04:27:53.639Z,8.30
2022-10-30T04:30:21.702Z,8.24
2022-10-30T04:32:48.874Z,8.16
2022-10-30T04:35:16.327Z,8.11
2022-10-30T04:37:52.186Z,8.06
2022-10-30T04:40:18.706Z,8.00
2022-10-30T04:42:47.005Z,7.98
2022-10-30T04:45:15.255Z,7.94
2022-10-30T04:47:42.155Z,7.91
2022-10-30T04:50:09.611Z,7.88
2022-10-30T04:52:36.709Z,7.84
2022-10-30T04:55:05.864Z,7.85
2022-10-30T04:57:32.394Z,7.81
2022-10-30T04:59:59.016Z,7.78
2022-10-30T05:02:26.118Z,7.75
2022-10-30T05:04:52.763Z,7.75
2022-10-30T05:07:19.279Z,7.74
2022-10-30T05:09:45.896Z,7.73
2022-10-30T05:12:13.819Z,7.67
2022-10-30T05:14:40.474Z,7.63
2022-10-30T05:17:07.111Z,7.63
2022-10-30T05:19:33.659Z,7.59
2022-10-30T05:22:00.188Z,7.61
2022-10-30T05:24:26.690Z,7.61
2022-10-30T05:26:53.242Z,7.62
2022-10-30T05:29:21.104Z,7.61
2022-10-30T05:31:47.645Z,7.59
2022-10-30T05:34:14.423Z,7.57
2022-10-30T05:36:40.943Z,7.53
2022-10-30T05:39:07.578Z,7.48
2022-10-30T05:41:34.168Z,7.45
2022-10-30T05:44:00.730Z,7.43
2022-10-30T05:46:28.572Z,7.40
2022-10-30T05:48:55.118Z,7.39
2022-10-30T05:51:21.642Z,7.38
2022-10-30T05:53:48.290Z,7.38
2022-10-30T05:56:14.830Z,7.37
2022-10-30T05:58:41.434Z,7.39
2022-10-30T06:01:08.797Z,7.39
2022-10-30T06:03:36.641Z,7.40
2022-10-30T06:06:03.399Z,7.42
2022-10-30T06:08:29.904Z,7.44
2022-10-30T06:10:56.519Z,7.49
2022-10-30T06:13:23.050Z,7.53
2022-10-30T06:15:49.582Z,7.60
2022-10-30T06:18:16.231Z,7.65
2022-10-30T06:20:44.081Z,7.69
2022-10-30T06:23:10.962Z,7.75
2022-10-30T06:25:41.511Z,7.85
2022-10-30T06:28:10.098Z,7.90
2022-10-30T06:30:36.765Z,7.91
2022-10-30T06:33:05.351Z,7.93
2022-10-30T06:35:32.469Z,7.92
2022-10-30T06:38:00.529Z,7.92
2022-10-30T06:40:27.981Z,7.93
2022-10-30T06:42:54.689Z,8.01
2022-10-30T06:45:23.469Z,8.09
2022-10-30T06:47:50.290Z,8.14
2022-10-30T06:50:19.439Z,8.20
2022-10-30T06:52:46.440Z,8.27
2022-10-30T06:55:14.322Z,8.31
2022-10-30T06:57:41.226Z,8.34
2022-10-30T07:00:09.192Z,8.37
2022-10-30T07:02:35.798Z,8.39
2022-10-30T07:05:02.300Z,8.42
2022-10-30T07:07:28.996Z,8.45
2022-10-30T07:09:55.646Z,8.47
2022-10-30T07:12:23.576Z,8.52
2022-10-30T07:14:50.122Z,8.59
2022-10-30T07:17:16.643Z,8.66
2022-10-30T07:19:43.197Z,8.71
2022-10-30T07:22:09.715Z,8.76
2022-10-30T07:24:36.257Z,8.86
2022-10-30T07:27:02.822Z,8.95
2022-10-30T07:29:30.656Z,9.06
2022-10-30T07:32:02.927Z,9.18
2022-10-30T07:34:30.044Z,9.32
2022-10-30T07:36:56.566Z,9.44
2022-10-30T07:39:23.279Z,9.52
2022-10-30T07:41:50.282Z,9.63
2022-10-30T07:44:17.064Z,9.78
2022-10-30T07:46:45.074Z,9.94
2022-10-30T07:49:11.593Z,10.13
2022-10-30T07:51:38.250Z,10.27
2022-10-30T07:54:04.849Z,10.44
2022-10-30T07:56:31.350Z,10.56
2022-10-30T07:58:57.879Z,10.70
2022-10-30T08:01:24.557Z,10.82
2022-10-30T08:03:52.526Z,10.89
2022-10-30T08:06:21.639Z,10.99
2022-10-30T08:08:51.247Z,11.10
2022-10-30T08:11:17.794Z,11.22
2022-10-30T08:13:44.315Z,11.31
2022-10-30T08:16:10.843Z,11.45
2022-10-30T08:18:37.369Z,11.56
2022-10-30T08:21:05.831Z,11.66
2022-10-30T08:23:32.378Z,11.76
2022-10-30T08:25:59.105Z,11.88
2022-10-30T08:28:29.875Z,12.01
2022-10-30T08:31:00.254Z,12.15
2022-10-30T08:33:26.815Z,12.22
2022-10-30T08:35:55.502Z,12.34
2022-10-30T08:38:24.391Z,12.39
2022-10-30T08:40:51.276Z,12.44
2022-10-30T08:43:18.693Z,12.50
2022-10-30T08:45:45.270Z,12.55
2022-10-30T08:48:16.624Z,12.63
2022-10-30T08:50:44.030Z,12.72
2022-10-30T08:53:14.300Z,12.81
2022-10-30T08:55:42.686Z,12.95
2022-10-30T08:58:09.206Z,13.10
2022-10-30T09:00:35.922Z,13.26
2022-10-30T09:03:03.235Z,13.36
2022-10-30T09:05:30.247Z,13.50
2022-10-30T09:07:57.513Z,13.70
2022-10-30T09:10:24.433Z,13.86
2022-10-30T09:12:55.515Z,14.03
2022-10-30T09:15:22.055Z,14.28
2022-10-30T09:17:48.593Z,14.53
2022-10-30T09:20:15.473Z,14.78
2022-10-30T09:22:42.079Z,14.99
2022-10-30T09:25:09.472Z,15.24
2022-10-30T09:27:37.818Z,15.48
2022-10-30T09:30:07.229Z,15.69
2022-10-30T09:32:33.782Z,15.91
2022-10-30T09:35:00.443Z,16.11
2022-10-30T09:37:27.068Z,16.33
2022-10-30T09:39:53.637Z,16.59
2022-10-30T09:42:40.549Z,16.72
2022-10-30T09:45:30.334Z,16.90
2022-10-30T09:48:18.105Z,17.12
2022-10-30T09:50:53.065Z,17.37
2022-10-30T09:53:26.681Z,17.56
2022-10-30T09:56:04.625Z,17.62
2022-10-30T09:58:46.935Z,17.84
2022-10-30T10:01:19.557Z,17.95
2022-10-30T10:03:58.223Z,18.12
2022-10-30T10:06:25.826Z,18.28
2022-10-30T10:08:56.592Z,18.11
2022-10-30T10:11:26.962Z,18.29
2022-10-30T10:13:57.654Z,18.36
2022-10-30T10:16:29.155Z,18.47
2022-10-30T10:19:00.724Z,18.59
2022-10-30T10:21:29.754Z,18.60
2022-10-30T10:23:59.293Z,18.74
2022-10-30T10:26:37.157Z,18.93
2022-10-30T10:29:20.691Z,18.87
2022-10-30T10:32:03.232Z,18.98
2022-10-30T10:34:47.765Z,19.01
2022-10-30T10:37:26.223Z,19.07
2022-10-30T10:40:10.431Z,19.05
2022-10-30T10:42:49.054Z,19.04
2022-10-30T10:45:27.402Z,19.20
2022-10-30T10:48:26.160Z,19.31
2022-10-30T10:50:58.348Z,19.58
2022-10-30T10:53:30.520Z,19.69
2022-10-30T10:55:59.806Z,19.82
2022-10-30T10:58:30.971Z,19.90
2022-10-30T11:00:59.330Z,20.01
2022-10-30T11:03:45.919Z,20.16
2022-10-30T11:06:20.079Z,20.40
2022-10-30T11:08:47.652Z,20.39
2022-10-30T11:11:14.431Z,20.46
2022-10-30T11:13:43.353Z,20.65
2022-10-30T11:16:22.310Z,20.85
2022-10-30T11:18:55.695Z,20.92
2022-10-30T11:21:24.120Z,21.17
2022-10-30T11:23:51.583Z,21.21
2022-10-30T11:26:33.525Z,21.59
2022-10-30T11:29:05.614Z,21.67
2022-10-30T11:31:33.435Z,21.70
2022-10-30T11:34:14.196Z,21.95
2022-10-30T11:36:40.921Z,21.76
2022-10-30T11:39:10.371Z,21.64
2022-10-30T11:41:37.993Z,21.70
2022-10-30T11:44:05.663Z,21.68
2022-10-30T11:46:35.299Z,21.53
2022-10-30T11:49:03.274Z,21.86
2022-10-30T11:51:33.662Z,22.14
2022-10-30T11:54:01.317Z,22.25
2022-10-30T11:56:28.496Z,22.11
2022-10-30T11:58:58.030Z,22.28
2022-10-30T12:01:26.421Z,22.03
2022-10-30T12:03:54.701Z,22.05
2022-10-30T12:06:28.655Z,21.86
2022-10-30T12:08:59.821Z,21.86
2022-10-30T12:11:29.789Z,21.91
2022-10-30T12:13:57.316Z,21.81
2022-10-30T12:16:24.229Z,21.78
2022-10-30T12:19:01.337Z,21.71
2022-10-30T12:21:34.796Z,21.78
2022-10-30T12:24:04.097Z,21.83
2022-10-30T12:26:30.650Z,22.02
2022-10-30T12:29:00.577Z,22.46
2022-10-30T12:31:35.922Z,22.67
2022-10-30T12:34:15.602Z,22.76
2022-10-30T12:36:50.400Z,22.91
2022-10-30T12:39:24.032Z,23.07
2022-10-30T12:41:59.251Z,22.99
2022-10-30T12:44:29.675Z,22.83
2022-10-30T12:47:03.768Z,22.99
2022-10-30T12:49:40.337Z,22.71
2022-10-30T12:52:15.745Z,22.76
2022-10-30T12:54:49.921Z,23.11
2022-10-30T12:57:20.760Z,23.12
2022-10-30T12:59:59.983Z,22.97
2022-10-30T13:02:38.237Z,23.15
2022-10-30T13:05:24.553Z,23.32
2022-10-30T13:08:02.407Z,23.17
2022-10-30T13:10:32.800Z,23.17
2022-10-30T13:13:05.270Z,23.33
2022-10-30T13:15:37.309Z,23.53
2022-10-30T13:18:15.332Z,23.36
2022-10-30T13:20:43.891Z,23.49
2022-10-30T13:23:16.881Z,23.55
2022-10-30T13:25:53.846Z,23.46
2022-10-30T13:28:26.250Z,23.41
2022-10-30T13:31:01.082Z,23.34
2022-10-30T13:33:36.043Z,23.26
2022-10-30T13:36:10.702Z,23.06
2022-10-30T13:38:46.579Z,22.75
2022-10-30T13:41:24.752Z,22.65
2022-10-30T13:44:02.266Z,22.59
2022-10-30T13:46:42.857Z,22.68
2022-10-30T13:49:25.554Z,22.73
2022-10-30T13:52:01.379Z,22.80
2022-10-30T13:54:32.157Z,22.90
2022-10-30T13:57:05.698Z,23.14
2022-10-30T13:59:50.031Z,23.25
2022-10-30T14:02:29.379Z,23.38
2022-10-30T14:05:01.700Z,23.29
2022-10-30T14:07:33.859Z,23.16
2022-10-30T14:10:06.815Z,23.14
2022-10-30T14:13:13.217Z,22.94
2022-10-30T14:15:42.942Z,22.82
2022-10-30T14:18:35.427Z,22.68
2022-10-30T14:21:43.684Z,22.50
2022-10-30T14:24:16.820Z,22.34
2022-10-30T14:26:53.130Z,22.45
2022-10-30T14:29:42.469Z,22.30
2022-10-30T14:32:41.143Z,22.30
2022-10-30T14:35:38.784Z,22.07
2022-10-30T14:38:35.493Z,21.87
2022-10-30T14:41:15.010Z,21.69
2022-10-30T14:43:56.007Z,21.50
2022-10-30T14:46:31.475Z,21.30
2022-10-30T14:49:05.995Z,21.18
2022-10-30T14:51:40.357Z,21.03
2022-10-30T14:54:18.545Z,20.80
2022-10-30T14:56:46.907Z,20.65
2022-10-30T14:59:31.995Z,20.54
2022-10-30T15:02:15.859Z,20.46
2022-10-30T15:05:03.814Z,20.24
2022-10-30T15:07:41.481Z,19.99
2022-10-30T15:10:17.002Z,19.72
2022-10-30T15:13:02.602Z,19.56
2022-10-30T15:15:30.636Z,19.32
2022-10-30T15:18:01.240Z,19.26
2022-10-30T15:20:30.755Z,19.10
2022-10-30T15:23:00.646Z,19.00
2022-10-30T15:25:31.910Z,18.89
2022-10-30T15:27:59.157Z,18.68
2022-10-30T15:30:27.172Z,18.59
2022-10-30T15:32:55.139Z,18.50
2022-10-30T15:35:23.453Z,18.27
2022-10-30T15:38:01.067Z,18.16
2022-10-30T15:40:29.046Z,17.99
2022-10-30T15:42:57.635Z,17.87
2022-10-30T15:45:29.881Z,17.75
2022-10-30T15:48:01.963Z,17.58
2022-10-30T15:50:28.711Z,17.39
2022-10-30T15:52:55.855Z,17.23
2022-10-30T15:55:28.167Z,17.04
2022-10-30T15:58:03.454Z,16.88
2022-10-30T16:00:33.167Z,16.62
2022-10-30T16:03:06.812Z,16.44
2022-10-30T16:05:34.150Z,16.36
2022-10-30T16:08:02.778Z,16.24
2022-10-30T16:10:33.507Z,16.15
2022-10-30T16:13:01.493Z,16.19
2022-10-30T16:15:30.097Z,16.24
2022-10-30T16:18:15.242Z,16.26
2022-10-30T16:20:44.149Z,16.26
2022-10-30T16:23:12.458Z,16.18
2022-10-30T16:25:45.890Z,16.07
2022-10-30T16:28:29.588Z,15.95
2022-10-30T16:30:57.747Z,15.92
2022-10-30T16:33:28.138Z,15.86
2022-10-30T16:35:56.078Z,15.83
2022-10-30T16:38:23.728Z,15.90
2022-10-30T16:40:51.249Z,15.90
2022-10-30T16:43:27.893Z,15.90
2022-10-30T16:45:55.837Z,16.04
2022-10-30T16:48:28.067Z,15.99
2022-10-30T16:51:02.637Z,16.03
2022-10-30T16:53:30.268Z,15.98
2022-10-30T16:55:58.811Z,15.94
2022-10-30T16:58:28.141Z,15.89
2022-10-30T17:00:57.447Z,15.88
2022-10-30T17:03:27.734Z,15.84
2022-10-30T17:06:00.817Z,15.90
2022-10-30T17:08:33.090Z,15.85
2022-10-30T17:11:01.581Z,15.93
2022-10-30T17:13:33.465Z,15.88
2022-10-30T17:16:20.381Z,15.92
2022-10-30T17:18:53.397Z,15.82
2022-10-30T17:21:23.511Z,15.84
2022-10-30T17:23:52.576Z,15.93
2022-10-30T17:26:19.085Z,15.93
2022-10-30T17:28:46.952Z,16.10
2022-10-30T17:31:22.170Z,16.20
2022-10-30T17:34:13.357Z,16.16
2022-10-30T17:36:40.324Z,16.18
2022-10-30T17:39:07.104Z,16.28
2022-10-30T17:41:34.044Z,16.24
2022-10-30T17:44:00.827Z,16.21
2022-10-30T17:46:27.510Z,16.14
2022-10-30T17:48:54.114Z,16.10
2022-10-30T17:51:22.049Z,16.10
2022-10-30T17:53:49.252Z,16.11
2022-10-30T17:56:19.713Z,16.09
2022-10-30T17:58:46.365Z,16.09
2022-10-30T18:01:15.637Z,16.00
2022-10-30T18:03:42.255Z,16.04
2022-10-30T18:06:15.817Z,16.08
2022-10-30T18:08:46.388Z,16.01
2022-10-30T18:11:17.650Z,15.91
2022-10-30T18:13:44.145Z,15.87
2022-10-30T18:16:12.549Z,15.85
2022-10-30T18:18:39.103Z,15.87
2022-10-30T18:21:06.141Z,15.81
2022-10-30T18:23:51.481Z,15.78
2022-10-30T18:26:22.870Z,15.83
2022-10-30T18:28:49.851Z,15.90
2022-10-30T18:31:18.929Z,15.96
2022-10-30T18:33:46.338Z,16.05
2022-10-30T18:36:14.167Z,16.12
2022-10-30T18:38:40.732Z,16.08
2022-10-30T18:41:13.607Z,16.07
2022-10-30T18:43:45.640Z,16.07
2022-10-30T18:46:14.366Z,16.19
2022-10-30T18:48:40.924Z,16.09
2022-10-30T18:51:15.324Z,15.97
2022-10-30T18:53:41.871Z,15.83
2022-10-30T18:56:09.920Z,15.62
2022-10-30T18:58:36.529Z,15.43
2022-10-30T19:01:11.867Z,15.29
2022-10-30T19:03:39.214Z,15.18
2022-10-30T19:06:09.620Z,15.11
2022-10-30T19:08:36.161Z,14.97
2022-10-30T19:11:02.734Z,14.87
2022-10-30T19:13:29.331Z,14.73
2022-10-30T19:16:00.308Z,14.57
2022-10-30T19:18:28.923Z,14.41
2022-10-30T19:21:04.485Z,14.28
2022-10-30T19:23:32.494Z,14.21
2022-10-30T19:25:59.123Z,14.21
2022-10-30T19:28:25.671Z,14.20
2022-10-30T19:30:52.193Z,14.27
2022-10-30T19:33:20.725Z,14.27
2022-10-30T19:35:54.602Z,14.29
2022-10-30T19:38:22.690Z,14.25
2022-10-30T19:40:50.069Z,14.32
2022-10-30T19:43:17.355Z,14.38
2022-10-30T19:45:43.986Z,14.44
2022-10-30T19:48:20.764Z,14.38
2022-10-30T19:50:51.470Z,14.36
2022-10-30T19:53:19.320Z,14.44
2022-10-30T19:55:47.015Z,14.40
2022-10-30T19:58:15.087Z,14.61
2022-10-30T20:00:43.294Z,14.62
2022-10-30T20:03:12.191Z,14.40
2022-10-30T20:05:40.590Z,14.29
2022-10-30T20:08:10.659Z,14.30
2022-10-30T20:10:40.905Z,14.25
2022-10-30T20:13:08.559Z,14.13
2022-10-30T20:15:35.309Z,14.25
2022-10-30T20:18:03.172Z,14.22
2022-10-30T20:20:32.506Z,14.38
2022-10-30T20:22:59.108Z,14.30
2022-10-30T20:25:27.146Z,14.29
2022-10-30T20:28:03.873Z,14.42
2022-10-30T20:30:33.365Z,14.34
2022-10-30T20:33:00.227Z,14.35
2022-10-30T20:35:27.193Z,14.43
2022-10-30T20:37:58.908Z,14.43
2022-10-30T20:40:26.207Z,14.43
2022-10-30T20:42:55.943Z,14.38
2022-10-30T20:45:27.945Z,14.34
2022-10-30T20:47:54.493Z,14.19
2022-10-30T20:50:21.403Z,14.20
2022-10-30T20:52:48.084Z,14.19
2022-10-30T20:55:14.919Z,14.15
2022-10-30T20:57:41.613Z,14.06
2022-10-30T21:00:11.789Z,14.16
2022-10-30T21:02:40.419Z,14.16
2022-10-30T21:05:17.359Z,14.09
2022-10-30T21:07:55.133Z,14.07
2022-10-30T21:10:24.431Z,14.10
2022-10-30T21:15:25.973Z,13.99
2022-10-30T21:17:53.935Z,13.83
2022-10-30T21:20:20.562Z,13.56
2022-10-30T21:22:47.194Z,13.32
2022-10-30T21:25:13.761Z,13.02
2022-10-30T21:27:40.294Z,12.82
2022-10-30T21:30:08.354Z,12.70
2022-10-30T21:32:34.932Z,12.59
2022-10-30T21:35:03.004Z,12.54
2022-10-30T21:37:33.583Z,12.48
2022-10-30T21:40:00.217Z,12.52
2022-10-30T21:44:58.702Z,12.85
2022-10-30T21:47:25.286Z,13.02
2022-10-30T21:49:51.928Z,13.14
2022-10-30T21:52:19.803Z,13.14
2022-10-30T21:54:46.311Z,13.14
2022-10-30T21:57:12.835Z,13.13
2022-10-30T21:59:39.464Z,13.02
2022-10-30T22:02:06.503Z,12.97
2022-10-30T22:04:33.318Z,12.86
2022-10-30T22:06:59.919Z,12.86
2022-10-30T22:09:27.969Z,12.82
2022-10-30T22:11:54.518Z,12.78
2022-10-30T22:14:21.032Z,12.78
2022-10-30T22:16:48.088Z,12.63
2022-10-30T22:19:14.743Z,12.47
2022-10-30T22:21:41.250Z,12.30
2022-10-30T22:24:08.237Z,12.10
2022-10-30T22:26:36.093Z,11.92
2022-10-30T22:29:02.733Z,11.72
2022-10-30T22:31:29.928Z,11.53
2022-10-30T22:33:58.313Z,11.32
2022-10-30T22:36:26.375Z,11.15
2022-10-30T22:38:58.454Z,11.03
2022-10-30T22:41:27.133Z,10.88
2022-10-30T22:43:56.960Z,10.78
2022-10-30T22:46:26.221Z,10.70
2022-10-30T22:48:52.861Z,10.61
2022-10-30T22:51:20.318Z,10.56
2022-10-30T22:53:48.382Z,10.49
2022-10-30T22:56:17.097Z,10.41
2022-10-30T22:58:44.373Z,10.30
2022-10-30T23:01:14.352Z,10.22
2022-10-30T23:03:41.436Z,10.14
2022-10-30T23:06:08.885Z,10.08
2022-10-30T23:08:36.088Z,10.02
2022-10-30T23:11:03.124Z,10.01
2022-10-30T23:13:30.573Z,10.01
2022-10-30T23:16:01.431Z,9.99
2022-10-30T23:18:30.208Z,9.98
2022-10-30T23:20:59.862Z,9.95
2022-10-30T23:23:26.439Z,9.92
2022-10-30T23:25:52.962Z,9.86
2022-10-30T23:28:19.533Z,9.80
2022-10-30T23:30:46.239Z,9.76
2022-10-30T23:33:13.047Z,9.70
2022-10-30T23:35:40.947Z,9.62
2022-10-30T23:38:07.471Z,9.54
2022-10-30T23:40:34.127Z,9.45
2022-10-30T23:43:01.006Z,9.40
2022-10-30T23:45:27.763Z,9.36
2022-10-30T23:47:54.306Z,9.32
2022-10-30T23:50:20.822Z,9.27
2022-10-30T23:52:48.740Z,9.23
2022-10-30T23:55:15.507Z,9.22
2022-10-30T23:57:42.042Z,9.20
